createdAt,value
2018-12-17T00:00:16.759Z,0.24
2018-12-17T00:01:16.783Z,0.23
2018-12-17T00:02:17.056Z,0.26
2018-12-17T00:03:16.327Z,0.24
2018-12-17T00:04:16.592Z,0.27
2018-12-17T00:05:16.856Z,0.26
2018-12-17T00:06:16.278Z,0.26
2018-12-17T00:07:16.533Z,0.27
2018-12-17T00:08:16.792Z,0.27
2018-12-17T00:09:17.055Z,0.23
2018-12-17T00:10:16.337Z,0.26
2018-12-17T00:11:16.393Z,0.26
2018-12-17T00:12:16.809Z,0.29
2018-12-17T00:13:16.093Z,0.27
2018-12-17T00:14:16.359Z,0.30
2018-12-17T00:15:16.627Z,0.29
2018-12-17T00:16:16.894Z,0.27
2018-12-17T00:17:16.151Z,0.29
2018-12-17T00:18:16.407Z,0.27
2018-12-17T00:19:16.672Z,0.30
2018-12-17T00:20:16.951Z,0.29
2018-12-17T00:21:16.987Z,0.30
2018-12-17T00:22:16.254Z,0.29
2018-12-17T00:23:16.518Z,0.32
2018-12-17T00:24:16.788Z,0.30
2018-12-17T00:25:17.045Z,0.27
2018-12-17T00:26:16.310Z,0.27
2018-12-17T00:27:16.576Z,0.27
2018-12-17T00:28:16.837Z,0.27
2018-12-17T00:29:16.167Z,0.26
2018-12-17T00:30:16.446Z,0.26
2018-12-17T00:31:16.501Z,0.26
2018-12-17T00:32:16.823Z,0.24
2018-12-17T00:33:16.107Z,0.26
2018-12-17T00:34:16.373Z,0.24
2018-12-17T00:35:16.635Z,0.26
2018-12-17T00:36:16.908Z,0.27
2018-12-17T00:37:16.172Z,0.26
2018-12-17T00:38:16.430Z,0.24
2018-12-17T00:39:16.697Z,0.27
2018-12-17T00:40:16.965Z,0.30
2018-12-17T00:41:17.023Z,0.30
2018-12-17T00:42:16.297Z,0.30
2018-12-17T00:43:16.559Z,0.30
2018-12-17T00:44:16.824Z,0.32
2018-12-17T00:45:16.086Z,0.34
2018-12-17T00:46:16.348Z,0.37
2018-12-17T00:47:16.616Z,0.36
2018-12-17T00:48:16.877Z,0.34
2018-12-17T00:49:16.140Z,0.36
2018-12-17T00:50:16.407Z,0.38
2018-12-17T00:51:16.451Z,0.40
2018-12-17T00:52:16.706Z,0.37
2018-12-17T00:53:16.976Z,0.40
2018-12-17T00:54:16.250Z,0.40
2018-12-17T00:55:16.521Z,0.40
2018-12-17T00:56:16.785Z,0.37
2018-12-17T00:57:17.050Z,0.43
2018-12-17T00:58:16.314Z,0.38
2018-12-17T00:59:16.580Z,0.40
2018-12-17T01:00:16.860Z,0.38
2018-12-17T01:01:16.920Z,0.41
2018-12-17T01:02:16.183Z,0.44
2018-12-17T01:03:16.461Z,0.40
2018-12-17T01:04:16.729Z,0.38
2018-12-17T01:05:16.999Z,0.40
2018-12-17T01:06:16.257Z,0.41
2018-12-17T01:07:16.522Z,0.43
2018-12-17T01:08:16.780Z,0.45
2018-12-17T01:09:16.080Z,0.43
2018-12-17T01:10:16.351Z,0.44
2018-12-17T01:11:16.417Z,0.44
2018-12-17T01:12:16.675Z,0.41
2018-12-17T01:13:16.954Z,0.43
2018-12-17T01:14:16.217Z,0.45
2018-12-17T01:15:16.481Z,0.41
2018-12-17T01:16:16.754Z,0.40
2018-12-17T01:17:17.013Z,0.41
2018-12-17T01:18:16.273Z,0.41
2018-12-17T01:19:16.596Z,0.45
2018-12-17T01:20:16.875Z,0.44
2018-12-17T01:21:16.926Z,0.43
2018-12-17T01:22:16.196Z,0.44
2018-12-17T01:23:16.468Z,0.43
2018-12-17T01:24:16.746Z,0.45
2018-12-17T01:25:17.014Z,0.45
2018-12-17T01:26:16.277Z,0.45
2018-12-17T01:27:16.534Z,0.47
2018-12-17T01:28:22.056Z,0.44
2018-12-17T01:29:16.783Z,0.41
2018-12-17T01:30:17.066Z,0.43
2018-12-17T01:31:16.122Z,0.45
2018-12-17T01:32:16.383Z,0.45
2018-12-17T01:33:16.652Z,0.44
2018-12-17T01:34:16.917Z,0.48
2018-12-17T01:35:16.189Z,0.48
2018-12-17T01:36:16.459Z,0.50
2018-12-17T01:37:16.756Z,0.47
2018-12-17T01:38:17.025Z,0.48
2018-12-17T01:39:16.288Z,0.50
2018-12-17T01:40:16.564Z,0.48
2018-12-17T01:41:16.604Z,0.47
2018-12-17T01:42:16.869Z,0.50
2018-12-17T01:43:16.138Z,0.50
2018-12-17T01:44:16.417Z,0.51
2018-12-17T01:45:16.691Z,0.50
2018-12-17T01:46:16.961Z,0.50
2018-12-17T01:47:16.233Z,0.51
2018-12-17T01:48:16.505Z,0.48
2018-12-17T01:49:16.776Z,0.47
2018-12-17T01:50:17.069Z,0.48
2018-12-17T01:51:16.107Z,0.47
2018-12-17T01:52:16.376Z,0.48
2018-12-17T01:53:16.638Z,0.48
2018-12-17T01:54:16.902Z,0.47
2018-12-17T01:55:16.165Z,0.47
2018-12-17T01:56:16.415Z,0.48
2018-12-17T01:57:16.669Z,0.47
2018-12-17T01:58:16.924Z,0.47
2018-12-17T01:59:16.191Z,0.48
2018-12-17T02:00:16.457Z,0.45
2018-12-17T02:01:16.511Z,0.45
2018-12-17T02:02:16.778Z,0.45
2018-12-17T02:03:17.050Z,0.50
2018-12-17T02:04:16.311Z,0.50
2018-12-17T02:05:16.566Z,0.47
2018-12-17T02:06:16.831Z,0.48
2018-12-17T02:07:16.097Z,0.51
2018-12-17T02:08:16.354Z,0.53
2018-12-17T02:09:16.618Z,0.53
2018-12-17T02:10:16.882Z,0.48
2018-12-17T02:11:16.942Z,0.50
2018-12-17T02:12:16.206Z,0.48
2018-12-17T02:13:16.464Z,0.50
2018-12-17T02:14:16.739Z,0.48
2018-12-17T02:15:17.012Z,0.45
2018-12-17T02:16:16.282Z,0.45
2018-12-17T02:17:16.557Z,0.50
2018-12-17T02:18:16.821Z,0.47
2018-12-17T02:19:16.083Z,0.48
2018-12-17T02:20:16.359Z,0.51
2018-12-17T02:21:16.399Z,0.53
2018-12-17T02:22:16.662Z,0.50
2018-12-17T02:23:16.920Z,0.47
2018-12-17T02:24:16.182Z,0.47
2018-12-17T02:25:16.452Z,0.48
2018-12-17T02:26:16.716Z,0.48
2018-12-17T02:27:16.984Z,0.53
2018-12-17T02:28:16.249Z,0.51
2018-12-17T02:29:16.517Z,0.47
2018-12-17T02:30:16.792Z,0.45
2018-12-17T02:31:16.845Z,0.45
2018-12-17T02:32:16.106Z,0.44
2018-12-17T02:33:16.374Z,0.41
2018-12-17T02:34:16.633Z,0.43
2018-12-17T02:35:16.911Z,0.45
2018-12-17T02:36:16.187Z,0.44
2018-12-17T02:37:16.462Z,0.45
2018-12-17T02:38:16.742Z,0.48
2018-12-17T02:39:17.008Z,0.51
2018-12-17T02:40:16.274Z,0.50
2018-12-17T02:41:16.355Z,0.48
2018-12-17T02:42:16.634Z,0.50
2018-12-17T02:43:16.896Z,0.53
2018-12-17T02:44:16.163Z,0.50
2018-12-17T02:45:16.446Z,0.54
2018-12-17T02:46:16.703Z,0.53
2018-12-17T02:47:16.965Z,0.50
2018-12-17T02:48:16.230Z,0.50
2018-12-17T02:49:16.505Z,0.47
2018-12-17T02:50:16.784Z,0.50
2018-12-17T02:51:16.809Z,0.45
2018-12-17T02:52:17.065Z,0.47
2018-12-17T02:53:16.333Z,0.44
2018-12-17T02:54:16.609Z,0.47
2018-12-17T02:55:16.870Z,0.48
2018-12-17T02:56:16.134Z,0.44
2018-12-17T02:57:16.395Z,0.48
2018-12-17T02:58:16.664Z,0.45
2018-12-17T02:59:16.950Z,0.44
2018-12-17T03:00:16.236Z,0.47
2018-12-17T03:01:16.306Z,0.58
2018-12-17T03:02:16.575Z,0.60
2018-12-17T03:03:16.840Z,0.60
2018-12-17T03:04:16.113Z,0.60
2018-12-17T03:05:16.370Z,0.55
2018-12-17T03:06:16.626Z,0.53
2018-12-17T03:07:16.899Z,0.54
2018-12-17T03:08:16.159Z,0.51
2018-12-17T03:09:16.428Z,0.45
2018-12-17T03:10:16.709Z,0.47
2018-12-17T03:11:16.752Z,0.48
2018-12-17T03:12:17.032Z,0.48
2018-12-17T03:13:16.292Z,0.51
2018-12-17T03:14:16.561Z,0.48
2018-12-17T03:15:16.817Z,0.50
2018-12-17T03:16:16.105Z,0.51
2018-12-17T03:17:16.375Z,0.51
2018-12-17T03:18:16.639Z,0.51
2018-12-17T03:19:16.902Z,0.48
2018-12-17T03:20:16.166Z,0.45
2018-12-17T03:21:17.080Z,0.41
2018-12-17T03:22:16.349Z,0.48
2018-12-17T03:23:16.630Z,0.50
2018-12-17T03:24:16.890Z,0.47
2018-12-17T03:25:16.167Z,0.50
2018-12-17T03:26:16.409Z,0.50
2018-12-17T03:27:16.682Z,0.48
2018-12-17T03:28:16.966Z,0.48
2018-12-17T03:29:16.248Z,0.50
2018-12-17T03:30:16.531Z,0.50
2018-12-17T03:31:16.609Z,0.48
2018-12-17T03:32:16.894Z,0.50
2018-12-17T03:33:16.171Z,0.50
2018-12-17T03:34:16.445Z,0.48
2018-12-17T03:35:16.704Z,0.48
2018-12-17T03:36:16.989Z,0.50
2018-12-17T03:37:16.251Z,0.50
2018-12-17T03:38:16.517Z,0.51
2018-12-17T03:39:16.786Z,0.51
2018-12-17T03:40:17.056Z,0.54
2018-12-17T03:41:16.527Z,0.51
2018-12-17T03:42:16.807Z,0.54
2018-12-17T03:43:17.067Z,0.48
2018-12-17T03:44:16.444Z,0.45
2018-12-17T03:45:16.721Z,0.44
2018-12-17T03:46:16.980Z,0.43
2018-12-17T03:47:16.248Z,0.45
2018-12-17T03:48:16.552Z,0.45
2018-12-17T03:49:16.838Z,0.48
2018-12-17T03:50:16.143Z,0.48
2018-12-17T03:51:16.157Z,0.50
2018-12-17T03:52:16.432Z,0.53
2018-12-17T03:53:16.707Z,0.51
2018-12-17T03:54:16.993Z,0.51
2018-12-17T03:55:16.261Z,0.48
2018-12-17T03:56:16.531Z,0.54
2018-12-17T03:57:16.797Z,0.51
2018-12-17T03:58:17.059Z,0.51
2018-12-17T03:59:16.350Z,0.55
2018-12-17T04:00:16.639Z,0.55
2018-12-17T04:01:16.680Z,0.58
2018-12-17T04:02:16.936Z,0.57
2018-12-17T04:03:16.210Z,0.60
2018-12-17T04:04:16.485Z,0.55
2018-12-17T04:05:16.754Z,0.58
2018-12-17T04:06:17.022Z,0.57
2018-12-17T04:07:16.280Z,0.58
2018-12-17T04:08:16.540Z,0.55
2018-12-17T04:09:16.805Z,0.58
2018-12-17T04:10:17.086Z,0.54
2018-12-17T04:11:16.135Z,0.53
2018-12-17T04:12:16.404Z,0.47
2018-12-17T04:13:16.674Z,0.47
2018-12-17T04:14:16.957Z,0.50
2018-12-17T04:15:16.247Z,0.50
2018-12-17T04:16:16.511Z,0.45
2018-12-17T04:17:16.774Z,0.45
2018-12-17T04:18:17.043Z,0.41
2018-12-17T04:19:16.312Z,0.45
2018-12-17T04:20:16.601Z,0.44
2018-12-17T04:21:16.650Z,0.45
2018-12-17T04:22:16.923Z,0.50
2018-12-17T04:23:16.178Z,0.47
2018-12-17T04:24:16.451Z,0.50
2018-12-17T04:25:16.729Z,0.51
2018-12-17T04:26:16.995Z,0.53
2018-12-17T04:27:16.264Z,0.48
2018-12-17T04:28:16.546Z,0.47
2018-12-17T04:29:16.814Z,0.48
2018-12-17T04:30:16.085Z,0.47
2018-12-17T04:31:16.148Z,0.45
2018-12-17T04:32:16.417Z,0.47
2018-12-17T04:33:16.684Z,0.51
2018-12-17T04:34:16.942Z,0.51
2018-12-17T04:35:16.271Z,0.53
2018-12-17T04:36:16.541Z,0.54
2018-12-17T04:37:16.819Z,0.53
2018-12-17T04:38:16.080Z,0.54
2018-12-17T04:39:16.354Z,0.53
2018-12-17T04:40:16.616Z,0.51
2018-12-17T04:41:16.677Z,0.54
2018-12-17T04:42:16.935Z,0.54
2018-12-17T04:43:16.212Z,0.53
2018-12-17T04:44:16.487Z,0.51
2018-12-17T04:45:16.755Z,0.51
2018-12-17T04:46:17.024Z,0.50
2018-12-17T04:47:16.284Z,0.53
2018-12-17T04:48:16.554Z,0.51
2018-12-17T04:49:16.846Z,0.55
2018-12-17T04:50:16.126Z,0.53
2018-12-17T04:51:16.163Z,0.54
2018-12-17T04:52:16.432Z,0.55
2018-12-17T04:53:16.704Z,0.53
2018-12-17T04:54:16.974Z,0.57
2018-12-17T04:55:16.244Z,0.57
2018-12-17T04:56:16.504Z,0.55
2018-12-17T04:57:16.767Z,0.54
2018-12-17T04:58:17.041Z,0.51
2018-12-17T04:59:16.311Z,0.51
2018-12-17T05:00:16.596Z,0.53
2018-12-17T05:01:16.623Z,0.51
2018-12-17T05:02:16.889Z,0.53
2018-12-17T05:03:16.152Z,0.50
2018-12-17T05:04:16.418Z,0.53
2018-12-17T05:05:16.700Z,0.50
2018-12-17T05:06:16.970Z,0.48
2018-12-17T05:07:16.244Z,0.50
2018-12-17T05:08:16.513Z,0.47
2018-12-17T05:09:16.784Z,0.53
2018-12-17T05:10:17.055Z,0.54
2018-12-17T05:11:16.103Z,0.51
2018-12-17T05:12:16.362Z,0.55
2018-12-17T05:13:16.138Z,0.53
2018-12-17T05:14:16.403Z,0.57
2018-12-17T05:15:16.678Z,0.60
2018-12-17T05:16:16.943Z,0.61
2018-12-17T05:17:16.209Z,0.60
2018-12-17T05:18:16.471Z,0.58
2018-12-17T05:19:16.737Z,0.60
2018-12-17T05:20:17.003Z,0.60
2018-12-17T05:21:17.060Z,0.63
2018-12-17T05:22:16.332Z,0.60
2018-12-17T05:23:16.600Z,0.58
2018-12-17T05:24:16.853Z,0.54
2018-12-17T05:25:16.122Z,0.54
2018-12-17T05:26:16.404Z,0.53
2018-12-17T05:27:16.678Z,0.57
2018-12-17T05:28:16.946Z,0.58
2018-12-17T05:29:21.492Z,0.58
2018-12-17T05:30:16.125Z,0.60
2018-12-17T05:31:16.170Z,0.57
2018-12-17T05:32:16.430Z,0.58
2018-12-17T05:33:16.697Z,0.58
2018-12-17T05:34:16.982Z,0.57
2018-12-17T05:35:16.437Z,0.60
2018-12-17T05:36:16.701Z,0.61
2018-12-17T05:37:16.978Z,0.63
2018-12-17T05:38:16.248Z,0.61
2018-12-17T05:39:16.525Z,0.63
2018-12-17T05:40:16.797Z,0.61
2018-12-17T05:41:16.838Z,0.61
2018-12-17T05:42:16.105Z,0.60
2018-12-17T05:43:16.371Z,0.58
2018-12-17T05:44:16.648Z,0.60
2018-12-17T05:45:16.923Z,0.61
2018-12-17T05:46:16.217Z,0.61
2018-12-17T05:47:16.499Z,0.64
2018-12-17T05:48:16.785Z,0.68
2018-12-17T05:49:17.053Z,0.68
2018-12-17T05:50:16.327Z,0.67
2018-12-17T05:51:16.386Z,0.65
2018-12-17T05:52:16.649Z,0.67
2018-12-17T05:53:16.922Z,0.67
2018-12-17T05:54:16.192Z,0.65
2018-12-17T05:55:16.531Z,0.60
2018-12-17T05:56:16.842Z,0.63
2018-12-17T05:57:16.104Z,0.58
2018-12-17T05:58:16.364Z,0.57
2018-12-17T05:59:16.614Z,0.53
2018-12-17T06:00:16.891Z,0.55
2018-12-17T06:01:16.916Z,0.54
2018-12-17T06:02:16.176Z,0.57
2018-12-17T06:03:16.441Z,0.58
2018-12-17T06:04:16.706Z,0.60
2018-12-17T06:05:16.978Z,0.64
2018-12-17T06:06:16.245Z,0.65
2018-12-17T06:07:16.521Z,0.64
2018-12-17T06:08:16.806Z,0.69
2018-12-17T06:09:17.073Z,0.65
2018-12-17T06:10:16.344Z,0.63
2018-12-17T06:11:16.394Z,0.65
2018-12-17T06:12:16.647Z,0.68
2018-12-17T06:13:16.916Z,0.69
2018-12-17T06:14:16.174Z,0.72
2018-12-17T06:15:16.440Z,0.71
2018-12-17T06:16:16.709Z,0.72
2018-12-17T06:17:16.978Z,0.74
2018-12-17T06:18:16.237Z,0.71
2018-12-17T06:19:16.494Z,0.72
2018-12-17T06:20:16.787Z,0.76
2018-12-17T06:21:16.803Z,0.75
2018-12-17T06:22:17.072Z,0.75
2018-12-17T06:23:16.341Z,0.75
2018-12-17T06:24:16.602Z,0.71
2018-12-17T06:25:16.867Z,0.71
2018-12-17T06:26:16.138Z,0.69
2018-12-17T06:27:16.403Z,0.69
2018-12-17T06:28:16.668Z,0.69
2018-12-17T06:29:16.932Z,0.75
2018-12-17T06:30:16.223Z,0.75
2018-12-17T06:31:16.242Z,0.74
2018-12-17T06:32:16.511Z,0.74
2018-12-17T06:33:16.776Z,0.75
2018-12-17T06:34:17.048Z,0.75
2018-12-17T06:35:16.342Z,0.81
2018-12-17T06:36:16.653Z,0.82
2018-12-17T06:37:16.918Z,0.89
2018-12-17T06:38:16.188Z,0.89
2018-12-17T06:39:16.470Z,0.89
2018-12-17T06:40:16.750Z,0.86
2018-12-17T06:41:16.810Z,0.86
2018-12-17T06:42:16.086Z,0.83
2018-12-17T06:43:16.355Z,0.83
2018-12-17T06:44:16.618Z,0.89
2018-12-17T06:45:16.881Z,0.86
2018-12-17T06:46:16.144Z,0.89
2018-12-17T06:47:16.421Z,0.95
2018-12-17T06:48:17.159Z,1.03
2018-12-17T06:49:16.789Z,0.96
2018-12-17T06:50:17.094Z,0.96
2018-12-17T06:51:16.094Z,0.93
2018-12-17T06:52:16.370Z,0.92
2018-12-17T06:53:16.632Z,0.92
2018-12-17T06:54:16.904Z,0.95
2018-12-17T06:55:16.180Z,0.96
2018-12-17T06:56:16.450Z,0.96
2018-12-17T06:57:16.720Z,1.00
2018-12-17T06:58:16.991Z,0.96
2018-12-17T06:59:16.253Z,0.96
2018-12-17T07:00:16.524Z,0.99
2018-12-17T07:01:16.575Z,1.00
2018-12-17T07:02:16.840Z,1.03
2018-12-17T07:03:16.102Z,1.00
2018-12-17T07:04:16.371Z,1.03
2018-12-17T07:05:16.635Z,1.02
2018-12-17T07:06:16.899Z,0.99
2018-12-17T07:07:16.166Z,1.00
2018-12-17T07:08:16.500Z,0.99
2018-12-17T07:09:16.763Z,0.99
2018-12-17T07:10:17.032Z,0.99
2018-12-17T07:11:16.078Z,0.98
2018-12-17T07:12:16.347Z,0.98
2018-12-17T07:13:16.613Z,0.99
2018-12-17T07:14:16.873Z,1.03
2018-12-17T07:15:16.147Z,1.02
2018-12-17T07:16:16.481Z,1.03
2018-12-17T07:17:16.752Z,1.04
2018-12-17T07:18:17.015Z,1.10
2018-12-17T07:19:16.281Z,1.12
2018-12-17T07:20:16.556Z,1.09
2018-12-17T07:21:16.612Z,1.07
2018-12-17T07:22:16.881Z,1.06
2018-12-17T07:23:16.143Z,1.13
2018-12-17T07:24:16.404Z,1.13
2018-12-17T07:25:16.673Z,1.13
2018-12-17T07:26:16.937Z,1.18
2018-12-17T07:27:16.207Z,1.16
2018-12-17T07:28:16.488Z,1.19
2018-12-17T07:29:16.756Z,1.18
2018-12-17T07:30:17.040Z,1.23
2018-12-17T07:31:16.099Z,1.23
2018-12-17T07:32:16.375Z,1.18
2018-12-17T07:33:16.652Z,1.15
2018-12-17T07:34:16.916Z,1.15
2018-12-17T07:35:16.194Z,1.15
2018-12-17T07:36:16.460Z,1.13
2018-12-17T07:37:16.722Z,1.19
2018-12-17T07:38:16.998Z,1.22
2018-12-17T07:39:16.275Z,1.26
2018-12-17T07:40:16.559Z,1.24
2018-12-17T07:41:16.608Z,1.30
2018-12-17T07:42:16.879Z,1.34
2018-12-17T07:43:16.140Z,1.36
2018-12-17T07:44:16.411Z,1.36
2018-12-17T07:45:16.674Z,1.37
2018-12-17T07:46:16.945Z,1.39
2018-12-17T07:47:16.207Z,1.41
2018-12-17T07:48:16.472Z,1.43
2018-12-17T07:49:16.736Z,1.44
2018-12-17T07:50:17.006Z,1.44
2018-12-17T07:51:17.059Z,1.41
2018-12-17T07:52:16.329Z,1.44
2018-12-17T07:53:16.600Z,1.46
2018-12-17T07:54:16.890Z,1.46
2018-12-17T07:55:16.161Z,1.46
2018-12-17T07:56:16.426Z,1.44
2018-12-17T07:57:16.694Z,1.50
2018-12-17T07:58:16.967Z,1.51
2018-12-17T07:59:16.231Z,1.53
2018-12-17T08:00:16.511Z,1.51
2018-12-17T08:01:16.565Z,1.54
2018-12-17T08:02:16.846Z,1.55
2018-12-17T08:03:16.106Z,1.57
2018-12-17T08:04:16.390Z,1.55
2018-12-17T08:05:16.673Z,1.51
2018-12-17T08:06:16.945Z,1.54
2018-12-17T08:07:16.389Z,1.58
2018-12-17T08:08:16.658Z,1.58
2018-12-17T08:09:16.929Z,1.57
2018-12-17T08:10:16.200Z,1.58
2018-12-17T08:11:16.273Z,1.61
2018-12-17T08:12:16.538Z,1.60
2018-12-17T08:13:16.796Z,1.62
2018-12-17T08:14:17.058Z,1.67
2018-12-17T08:15:16.344Z,1.64
2018-12-17T08:16:16.608Z,1.64
2018-12-17T08:17:16.884Z,1.69
2018-12-17T08:18:16.160Z,1.67
2018-12-17T08:19:16.427Z,1.60
2018-12-17T08:20:16.703Z,1.62
2018-12-17T08:21:16.750Z,1.64
2018-12-17T08:22:17.011Z,1.67
2018-12-17T08:23:16.357Z,1.68
2018-12-17T08:24:16.629Z,1.68
2018-12-17T08:25:16.902Z,1.71
2018-12-17T08:26:16.170Z,1.77
2018-12-17T08:27:16.430Z,1.78
2018-12-17T08:28:16.693Z,1.79
2018-12-17T08:29:16.962Z,1.79
2018-12-17T08:30:16.240Z,1.81
2018-12-17T08:31:16.271Z,1.85
2018-12-17T08:32:16.532Z,1.85
2018-12-17T08:33:16.799Z,1.86
2018-12-17T08:34:17.059Z,1.89
2018-12-17T08:35:16.323Z,1.92
2018-12-17T08:36:16.591Z,1.86
2018-12-17T08:37:16.873Z,1.85
2018-12-17T08:38:16.130Z,1.88
2018-12-17T08:39:16.390Z,1.90
2018-12-17T08:40:16.655Z,1.93
2018-12-17T08:41:16.705Z,1.93
2018-12-17T08:42:16.987Z,1.96
2018-12-17T08:43:16.244Z,1.95
2018-12-17T08:44:16.506Z,1.92
2018-12-17T08:45:16.771Z,1.95
2018-12-17T08:46:17.056Z,1.90
2018-12-17T08:47:16.339Z,1.95
2018-12-17T08:48:16.615Z,1.95
2018-12-17T08:49:16.871Z,1.90
2018-12-17T08:50:16.153Z,1.90
2018-12-17T08:51:16.184Z,1.89
2018-12-17T08:52:16.461Z,1.92
2018-12-17T08:53:16.727Z,1.93
2018-12-17T08:54:16.998Z,1.90
2018-12-17T08:55:16.262Z,1.89
2018-12-17T08:56:16.530Z,1.89
2018-12-17T08:57:16.801Z,1.90
2018-12-17T08:58:17.073Z,1.96
2018-12-17T08:59:16.348Z,1.96
2018-12-17T09:00:16.623Z,1.95
2018-12-17T09:01:16.667Z,1.99
2018-12-17T09:02:16.928Z,1.99
2018-12-17T09:03:16.193Z,2.02
2018-12-17T09:04:16.471Z,2.00
2018-12-17T09:05:16.741Z,2.06
2018-12-17T09:06:17.002Z,1.99
2018-12-17T09:07:16.271Z,1.99
2018-12-17T09:08:16.528Z,2.05
2018-12-17T09:09:16.789Z,2.09
2018-12-17T09:10:17.069Z,2.12
2018-12-17T09:11:16.105Z,2.10
2018-12-17T09:12:16.371Z,2.09
2018-12-17T09:13:16.647Z,2.13
2018-12-17T09:14:16.908Z,2.10
2018-12-17T09:15:16.184Z,2.06
2018-12-17T09:16:16.451Z,2.09
2018-12-17T09:17:16.723Z,2.14
2018-12-17T09:18:16.985Z,2.14
2018-12-17T09:19:16.245Z,2.17
2018-12-17T09:20:16.518Z,2.20
2018-12-17T09:21:16.589Z,2.21
2018-12-17T09:22:16.852Z,2.27
2018-12-17T09:23:16.124Z,2.30
2018-12-17T09:24:16.389Z,2.37
2018-12-17T09:25:16.734Z,2.36
2018-12-17T09:26:17.002Z,2.37
2018-12-17T09:27:16.273Z,2.44
2018-12-17T09:28:16.534Z,2.45
2018-12-17T09:29:16.787Z,2.58
2018-12-17T09:30:18.435Z,2.65
2018-12-17T09:31:16.099Z,2.64
2018-12-17T09:32:16.368Z,2.54
2018-12-17T09:33:16.636Z,2.58
2018-12-17T09:34:16.900Z,2.64
2018-12-17T09:35:16.174Z,2.69
2018-12-17T09:36:16.462Z,2.65
2018-12-17T09:37:16.736Z,2.63
2018-12-17T09:38:16.997Z,2.60
2018-12-17T09:39:16.261Z,2.65
2018-12-17T09:40:16.548Z,2.68
2018-12-17T09:41:16.578Z,2.63
2018-12-17T09:42:16.845Z,2.61
2018-12-17T09:43:16.336Z,2.68
2018-12-17T09:44:16.602Z,2.71
2018-12-17T09:45:16.870Z,2.74
2018-12-17T09:46:16.127Z,2.69
2018-12-17T09:47:16.398Z,2.74
2018-12-17T09:48:16.658Z,2.81
2018-12-17T09:49:16.932Z,2.82
2018-12-17T09:50:16.711Z,2.85
2018-12-17T09:51:19.416Z,2.76
2018-12-17T09:52:16.125Z,2.78
2018-12-17T09:53:16.381Z,2.78
2018-12-17T09:54:16.649Z,2.78
2018-12-17T09:55:16.931Z,2.82
2018-12-17T09:56:16.187Z,2.82
2018-12-17T09:57:16.463Z,2.84
2018-12-17T09:58:16.727Z,2.89
2018-12-17T09:59:17.000Z,2.95
2018-12-17T10:00:16.268Z,2.92
2018-12-17T10:01:16.325Z,2.96
2018-12-17T10:02:16.588Z,2.93
2018-12-17T10:03:16.855Z,2.93
2018-12-17T10:04:16.126Z,2.89
2018-12-17T10:05:16.407Z,2.95
2018-12-17T10:06:16.674Z,2.98
2018-12-17T10:07:16.962Z,2.99
2018-12-17T10:08:16.223Z,2.93
2018-12-17T10:09:16.498Z,2.98
2018-12-17T10:10:16.773Z,2.98
2018-12-17T10:11:16.817Z,2.95
2018-12-17T10:12:16.078Z,3.00
2018-12-17T10:13:16.347Z,2.89
2018-12-17T10:14:16.612Z,2.85
2018-12-17T10:15:16.902Z,2.85
2018-12-17T10:16:16.166Z,2.85
2018-12-17T10:17:16.435Z,2.82
2018-12-17T10:18:16.701Z,2.79
2018-12-17T10:19:16.975Z,2.85
2018-12-17T10:20:16.242Z,2.85
2018-12-17T10:21:16.308Z,2.91
2018-12-17T10:22:16.574Z,2.96
2018-12-17T10:23:16.842Z,2.91
2018-12-17T10:24:16.111Z,2.91
2018-12-17T10:25:16.384Z,2.89
2018-12-17T10:26:16.654Z,2.93
2018-12-17T10:27:16.924Z,2.89
2018-12-17T10:28:16.176Z,2.86
2018-12-17T10:29:16.441Z,2.84
2018-12-17T10:30:16.783Z,2.85
2018-12-17T10:31:16.848Z,2.89
2018-12-17T10:32:16.121Z,2.96
2018-12-17T10:33:16.397Z,2.96
2018-12-17T10:34:16.661Z,3.00
2018-12-17T10:35:16.918Z,3.04
2018-12-17T10:36:16.185Z,3.04
2018-12-17T10:37:16.473Z,3.07
2018-12-17T10:38:16.744Z,3.10
2018-12-17T10:39:17.026Z,3.06
2018-12-17T10:40:16.311Z,3.04
2018-12-17T10:41:16.371Z,3.03
2018-12-17T10:42:16.648Z,3.03
2018-12-17T10:43:16.915Z,3.09
2018-12-17T10:44:16.182Z,3.09
2018-12-17T10:45:16.466Z,3.13
2018-12-17T10:46:16.731Z,3.12
2018-12-17T10:47:16.995Z,3.17
2018-12-17T10:48:16.263Z,3.24
2018-12-17T10:49:16.550Z,3.24
2018-12-17T10:50:16.830Z,3.28
2018-12-17T10:51:16.870Z,3.30
2018-12-17T10:52:16.144Z,3.40
2018-12-17T10:53:16.400Z,3.41
2018-12-17T10:54:16.666Z,3.40
2018-12-17T10:55:16.938Z,3.36
2018-12-17T10:56:16.210Z,3.39
2018-12-17T10:57:16.481Z,3.39
2018-12-17T10:58:16.744Z,3.34
2018-12-17T10:59:17.019Z,3.24
2018-12-17T11:00:16.291Z,3.30
2018-12-17T11:01:16.348Z,3.33
2018-12-17T11:02:16.603Z,3.41
2018-12-17T11:03:16.869Z,3.46
2018-12-17T11:04:16.138Z,3.50
2018-12-17T11:05:16.415Z,3.55
2018-12-17T11:06:16.677Z,3.61
2018-12-17T11:07:16.950Z,3.61
2018-12-17T11:08:16.222Z,3.49
2018-12-17T11:09:16.554Z,3.47
2018-12-17T11:10:16.821Z,3.50
2018-12-17T11:11:16.885Z,3.61
2018-12-17T11:12:16.138Z,3.61
2018-12-17T11:13:16.400Z,3.65
2018-12-17T11:14:16.666Z,3.67
2018-12-17T11:15:16.953Z,3.71
2018-12-17T11:16:16.219Z,3.67
2018-12-17T11:17:16.488Z,3.72
2018-12-17T11:18:16.758Z,3.78
2018-12-17T11:19:17.022Z,3.83
2018-12-17T11:20:16.288Z,3.82
2018-12-17T11:21:16.348Z,3.85
2018-12-17T11:22:16.613Z,3.88
2018-12-17T11:23:16.874Z,3.85
2018-12-17T11:24:16.125Z,3.98
2018-12-17T11:25:16.386Z,3.93
2018-12-17T11:26:16.656Z,3.93
2018-12-17T11:27:16.916Z,4.03
2018-12-17T11:28:16.180Z,4.06
2018-12-17T11:29:16.448Z,4.10
2018-12-17T11:30:16.721Z,4.00
2018-12-17T11:31:16.782Z,4.13
2018-12-17T11:32:17.051Z,4.12
2018-12-17T11:33:16.326Z,4.12
2018-12-17T11:34:16.591Z,4.12
2018-12-17T11:35:16.855Z,4.12
2018-12-17T11:36:16.126Z,4.08
2018-12-17T11:37:16.389Z,4.13
2018-12-17T11:38:16.656Z,4.16
2018-12-17T11:39:16.917Z,4.14
2018-12-17T11:40:16.187Z,4.20
2018-12-17T11:41:16.229Z,4.14
2018-12-17T11:42:16.499Z,4.17
2018-12-17T11:43:16.768Z,4.24
2018-12-17T11:44:17.028Z,4.33
2018-12-17T11:45:16.291Z,4.36
2018-12-17T11:46:16.555Z,4.21
2018-12-17T11:47:16.809Z,4.19
2018-12-17T11:48:16.074Z,4.20
2018-12-17T11:49:16.337Z,4.17
2018-12-17T11:50:16.617Z,4.19
2018-12-17T11:51:17.001Z,4.19
2018-12-17T11:52:16.272Z,4.23
2018-12-17T11:53:16.532Z,4.33
2018-12-17T11:54:16.793Z,4.38
2018-12-17T11:55:16.146Z,4.30
2018-12-17T11:56:16.415Z,4.28
2018-12-17T11:57:16.675Z,4.33
2018-12-17T11:58:16.937Z,4.41
2018-12-17T11:59:16.203Z,4.44
2018-12-17T12:00:16.466Z,4.44
2018-12-17T12:01:16.530Z,4.37
2018-12-17T12:02:16.795Z,4.38
2018-12-17T12:03:17.057Z,4.43
2018-12-17T12:04:16.319Z,4.38
2018-12-17T12:05:16.571Z,4.50
2018-12-17T12:06:16.846Z,4.46
2018-12-17T12:07:16.123Z,4.47
2018-12-17T12:08:16.403Z,4.58
2018-12-17T12:09:17.692Z,4.58
2018-12-17T12:10:16.816Z,4.48
2018-12-17T12:11:16.863Z,4.47
2018-12-17T12:12:16.139Z,4.54
2018-12-17T12:13:16.411Z,4.55
2018-12-17T12:14:16.678Z,4.53
2018-12-17T12:15:16.953Z,4.54
2018-12-17T12:16:16.222Z,4.48
2018-12-17T12:17:16.486Z,4.54
2018-12-17T12:18:16.746Z,4.48
2018-12-17T12:19:17.004Z,4.47
2018-12-17T12:20:16.295Z,4.50
2018-12-17T12:21:16.337Z,4.57
2018-12-17T12:22:16.590Z,4.53
2018-12-17T12:23:16.855Z,4.53
2018-12-17T12:24:16.125Z,4.57
2018-12-17T12:25:16.393Z,4.55
2018-12-17T12:26:16.652Z,4.51
2018-12-17T12:27:16.921Z,4.53
2018-12-17T12:28:16.189Z,4.50
2018-12-17T12:29:16.465Z,4.58
2018-12-17T12:30:16.739Z,4.64
2018-12-17T12:31:16.776Z,4.58
2018-12-17T12:32:17.030Z,4.63
2018-12-17T12:33:16.305Z,4.61
2018-12-17T12:34:16.573Z,4.69
2018-12-17T12:35:16.839Z,4.72
2018-12-17T12:36:16.118Z,4.72
2018-12-17T12:37:16.375Z,4.68
2018-12-17T12:38:16.641Z,4.72
2018-12-17T12:39:16.914Z,4.79
2018-12-17T12:40:16.193Z,4.76
2018-12-17T12:41:16.235Z,4.78
2018-12-17T12:42:16.506Z,4.79
2018-12-17T12:43:16.779Z,4.82
2018-12-17T12:44:17.043Z,4.84
2018-12-17T12:45:16.307Z,4.81
2018-12-17T12:46:16.575Z,4.84
2018-12-17T12:47:16.845Z,4.78
2018-12-17T12:48:16.114Z,4.78
2018-12-17T12:49:16.380Z,4.75
2018-12-17T12:50:16.662Z,4.78
2018-12-17T12:51:16.679Z,4.79
2018-12-17T12:52:16.937Z,4.74
2018-12-17T12:53:16.205Z,4.68
2018-12-17T12:54:16.477Z,4.64
2018-12-17T12:55:16.741Z,4.69
2018-12-17T12:56:17.004Z,4.74
2018-12-17T12:57:16.269Z,4.78
2018-12-17T12:58:16.532Z,4.74
2018-12-17T12:59:16.793Z,4.72
2018-12-17T13:00:17.068Z,4.69
2018-12-17T13:01:16.136Z,4.72
2018-12-17T13:02:16.403Z,4.69
2018-12-17T13:03:16.662Z,4.68
2018-12-17T13:04:16.931Z,4.67
2018-12-17T13:05:16.204Z,4.65
2018-12-17T13:06:16.481Z,4.64
2018-12-17T13:07:16.753Z,4.64
2018-12-17T13:08:17.030Z,4.64
2018-12-17T13:09:16.296Z,4.69
2018-12-17T13:10:16.560Z,4.68
2018-12-17T13:11:16.610Z,4.65
2018-12-17T13:12:16.882Z,4.61
2018-12-17T13:13:16.138Z,4.63
2018-12-17T13:14:16.405Z,4.64
2018-12-17T13:15:16.686Z,4.65
2018-12-17T13:16:16.945Z,4.67
2018-12-17T13:17:16.224Z,4.64
2018-12-17T13:18:16.483Z,4.65